Time;durP1;ratioP1;P1;durP2;ratioP2;P2;SDS_P1;SDS_P2;PMS_P1;PMS_P2;Temp;Humidity;BMP_temperature;BMP_pressure;BME280_temperature;BME280_humidity;BME280_pressure;Samples;Min_cycle;Max_cycle;Signal;HPM_P1;HPM_P2
2022/06/23 00:00:06;;;;;;;;;;;17.60;90.90;;;;;;5113620;28;19924;-80
2022/06/23 00:02:34;;;;;;;;;;;17.50;91.10;;;;;;5089088;28;19924;-86
2022/06/23 00:05:06;;;;;;;;;;;17.50;91.10;;;;;;5113875;28;19923;-82
2022/06/23 00:07:36;;;;;;;;;;;17.40;91.30;;;;;;5117437;28;19924;-82
2022/06/23 00:10:12;;;;;;;;;;;17.40;91.40;;;;;;5111444;28;19924;-82
2022/06/23 00:12:41;;;;;;;;;;;17.40;91.70;;;;;;5101726;28;19935;-83
2022/06/23 00:15:09;;;;;;;;;;;17.40;91.50;;;;;;5118530;28;19930;-81
2022/06/23 00:17:44;;;;;;;;;;;17.40;91.40;;;;;;5121364;28;20272;-82
2022/06/23 00:20:11;;;;;;;;;;;17.30;91.40;;;;;;5120027;28;19939;-81
2022/06/23 00:22:40;;;;;;;;;;;17.30;91.50;;;;;;5097353;28;19924;-81
2022/06/23 00:25:08;;;;;;;;;;;17.70;91.70;;;;;;5114341;28;19931;-87
2022/06/23 00:27:38;;;;;;;;;;;17.20;91.70;;;;;;5090607;28;19931;-88
2022/06/23 00:30:17;;;;;;;;;;;17.10;91.50;;;;;;5110679;28;19934;-91
2022/06/23 00:32:45;;;;;;;;;;;17.10;91.60;;;;;;5125912;28;19928;-84
2022/06/23 00:35:18;;;;;;;;;;;17.00;91.80;;;;;;5119542;28;19935;-80
2022/06/23 00:37:51;;;;;;;;;;;17.00;91.70;;;;;;5113835;28;19924;-83
2022/06/23 00:40:21;;;;;;;;;;;17.00;91.90;;;;;;5112179;28;19950;-83
2022/06/23 00:42:55;;;;;;;;;;;16.90;92.00;;;;;;5109633;28;19928;-81
2022/06/23 00:45:31;;;;;;;;;;;17.00;92.00;;;;;;5112008;28;19924;-84
2022/06/23 00:48:11;;;;;;;;;;;16.80;92.10;;;;;;5098763;28;19923;-82
2022/06/23 00:50:43;;;;;;;;;;;16.80;92.50;;;;;;5097075;28;19923;-82
2022/06/23 00:53:11;;;;;;;;;;;16.70;92.30;;;;;;5104035;28;19931;-83
2022/06/23 00:55:41;;;;;;;;;;;16.60;92.50;;;;;;5097377;28;19924;-84
2022/06/23 00:58:17;;;;;;;;;;;16.50;92.80;;;;;;5116705;28;19927;-82
2022/06/23 01:00:44;;;;;;;;;;;16.40;92.90;;;;;;5117598;28;19928;-83
2022/06/23 01:03:20;;;;;;;;;;;16.40;93.10;;;;;;5092273;28;19932;-82
2022/06/23 01:05:56;;;;;;;;;;;16.30;93.20;;;;;;5114539;28;19924;-82
2022/06/23 01:08:28;;;;;;;;;;;16.20;93.30;;;;;;5096969;28;19931;-86
2022/06/23 01:11:08;;;;;;;;;;;16.00;93.40;;;;;;5094118;28;19935;-84
2022/06/23 01:13:40;;;;;;;;;;;15.90;93.60;;;;;;5096608;28;19934;-84
2022/06/23 01:16:14;;;;;;;;;;;15.90;94.00;;;;;;5116035;28;19931;-87
2022/06/23 01:18:41;;;;;;;;;;;15.80;94.10;;;;;;5114513;28;20378;-85
2022/06/23 01:21:09;;;;;;;;;;;15.70;94.50;;;;;;5099346;28;19931;-86
2022/06/23 01:23:50;;;;;;;;;;;15.60;94.20;;;;;;5116370;28;21483;-82
2022/06/23 01:26:27;;;;;;;;;;;15.60;94.50;;;;;;5109630;28;19924;-82
2022/06/23 01:29:27;;;;;;;;;;;15.50;94.40;;;;;;5097922;28;19928;-86
2022/06/23 01:31:59;;;;;;;;;;;15.40;94.40;;;;;;5044037;28;19924;-84
2022/06/23 01:34:32;;;;;;;;;;;15.50;94.90;;;;;;5113574;28;19935;-82
2022/06/23 01:37:06;;;;;;;;;;;15.40;95.50;;;;;;5095364;28;19935;-82
2022/06/23 01:39:47;;;;;;;;;;;15.30;94.80;;;;;;5113186;28;19924;-81
2022/06/23 01:42:24;;;;;;;;;;;15.20;95.00;;;;;;5099217;28;19939;-85
2022/06/23 01:44:55;;;;;;;;;;;15.20;95.90;;;;;;5111269;28;19954;-82
2022/06/23 01:47:23;;;;;;;;;;;15.10;95.50;;;;;;5100400;28;19935;-85
2022/06/23 01:49:55;;;;;;;;;;;15.00;95.90;;;;;;5116331;28;19927;-83
2022/06/23 01:52:23;;;;;;;;;;;14.90;95.60;;;;;;5114190;28;20543;-86
2022/06/23 01:54:56;;;;;;;;;;;14.80;95.80;;;;;;5113705;28;19927;-82
2022/06/23 01:57:23;;;;;;;;;;;14.80;96.30;;;;;;5099200;28;19928;-86
2022/06/23 01:59:54;;;;;;;;;;;14.70;96.10;;;;;;5119923;28;19938;-88
2022/06/23 02:02:25;;;;;;;;;;;14.70;96.20;;;;;;5087888;28;19924;-82
2022/06/23 02:04:58;;;;;;;;;;;14.50;96.10;;;;;;5086180;28;19946;-86
2022/06/23 02:07:32;;;;;;;;;;;14.70;96.40;;;;;;5121929;28;19923;-82
2022/06/23 02:10:18;;;;;;;;;;;15.30;96.40;;;;;;5120757;28;19930;-84
2022/06/23 02:12:46;;;;;;;;;;;14.60;96.50;;;;;;5115321;28;19923;-82
2022/06/23 02:15:14;;;;;;;;;;;14.50;96.70;;;;;;5119960;28;19935;-81
2022/06/23 02:17:50;;;;;;;;;;;14.50;96.90;;;;;;5092917;28;19923;-85
2022/06/23 02:20:29;;;;;;;;;;;14.50;96.70;;;;;;5104346;28;19935;-82
2022/06/23 02:23:02;;;;;;;;;;;14.30;96.70;;;;;;5121722;28;19931;-84
2022/06/23 02:25:32;;;;;;;;;;;14.50;96.80;;;;;;5102662;28;19930;-84
2022/06/23 02:28:09;;;;;;;;;;;14.40;96.90;;;;;;5109641;28;19924;-83
2022/06/23 02:30:45;;;;;;;;;;;14.40;97.10;;;;;;5123771;28;19924;-85
2022/06/23 02:33:35;;;;;;;;;;;14.40;97.20;;;;;;5122496;28;19928;-84
2022/06/23 02:36:24;;;;;;;;;;;14.40;97.30;;;;;;5103668;28;19927;-81
2022/06/23 02:38:54;;;;;;;;;;;14.50;97.70;;;;;;4757869;27;10000267;-81
2022/06/23 02:41:48;;;;;;;;;;;14.60;97.40;;;;;;5088191;28;19924;-81
2022/06/23 02:44:19;;;;;;;;;;;14.40;97.50;;;;;;5094030;28;19934;-83
2022/06/23 02:46:58;;;;;;;;;;;14.30;97.70;;;;;;5114816;28;19931;-82
2022/06/23 02:49:56;;;;;;;;;;;14.30;97.80;;;;;;5095712;28;19935;-81
2022/06/23 02:52:43;;;;;;;;;;;14.30;97.80;;;;;;5079273;28;19924;-80
2022/06/23 02:55:11;;;;;;;;;;;14.30;97.80;;;;;;5097103;28;19931;-82
2022/06/23 02:57:49;;;;;;;;;;;14.40;98.00;;;;;;5098371;28;20324;-81
2022/06/23 03:00:32;;;;;;;;;;;14.40;98.40;;;;;;5116577;28;19924;-80
2022/06/23 03:03:13;;;;;;;;;;;14.40;98.60;;;;;;5116523;28;19923;-81
2022/06/23 03:06:01;;;;;;;;;;;14.40;98.70;;;;;;5117767;28;19927;-82
2022/06/23 03:08:45;;;;;;;;;;;14.50;98.60;;;;;;5118483;28;19935;-83
2022/06/23 03:11:16;;;;;;;;;;;14.40;98.40;;;;;;5093465;28;19928;-81
2022/06/23 03:13:51;;;;;;;;;;;14.50;98.40;;;;;;5081242;28;20294;-81
2022/06/23 03:16:24;;;;;;;;;;;14.60;98.20;;;;;;5082216;28;19931;-81
2022/06/23 03:19:11;;;;;;;;;;;14.70;98.10;;;;;;5103238;28;19931;-80
2022/06/23 03:21:43;;;;;;;;;;;14.70;98.70;;;;;;5093645;28;19931;-83
2022/06/23 03:24:16;;;;;;;;;;;14.70;98.20;;;;;;5098898;28;19924;-81
2022/06/23 03:26:45;;;;;;;;;;;14.80;98.80;;;;;;5097051;28;19927;-81
2022/06/23 03:29:15;;;;;;;;;;;14.80;98.30;;;;;;5121025;27;19928;-82
2022/06/23 03:32:01;;;;;;;;;;;15.00;98.60;;;;;;5109029;28;19935;-80
2022/06/23 03:34:30;;;;;;;;;;;14.90;98.50;;;;;;5069857;28;19924;-82
2022/06/23 03:37:00;;;;;;;;;;;14.90;98.50;;;;;;5115110;28;19924;-82
2022/06/23 03:42:45;;;;;;;;;;;14.90;98.60;;;;;;5095781;28;19923;-81
2022/06/23 03:45:18;;;;;;;;;;;15.00;98.50;;;;;;5078553;28;19946;-80
2022/06/23 03:47:57;;;;;;;;;;;15.00;99.30;;;;;;5100347;28;19923;-81
2022/06/23 03:50:45;;;;;;;;;;;15.10;98.70;;;;;;5094904;28;20286;-81
2022/06/23 03:53:23;;;;;;;;;;;15.10;98.60;;;;;;5107076;28;19931;-80
2022/06/23 03:56:12;;;;;;;;;;;15.10;98.70;;;;;;5117624;28;19931;-81
2022/06/23 03:59:08;;;;;;;;;;;15.20;98.80;;;;;;5085837;28;19927;-81
2022/06/23 04:01:46;;;;;;;;;;;15.30;98.70;;;;;;5110832;28;19931;-83
2022/06/23 04:04:16;;;;;;;;;;;15.30;98.50;;;;;;5073480;28;19924;-84
2022/06/23 04:06:45;;;;;;;;;;;15.40;98.40;;;;;;5114429;28;19928;-83
2022/06/23 04:09:27;;;;;;;;;;;15.40;98.50;;;;;;5104509;28;19931;-81
2022/06/23 04:11:59;;;;;;;;;;;15.50;98.60;;;;;;5102679;28;19935;-87
2022/06/23 04:14:37;;;;;;;;;;;15.50;98.60;;;;;;5082731;28;20383;-81
2022/06/23 04:17:07;;;;;;;;;;;15.50;98.50;;;;;;5139813;27;19946;-85
2022/06/23 04:19:35;;;;;;;;;;;15.60;98.70;;;;;;5108093;28;19928;-89
2022/06/23 04:22:10;;;;;;;;;;;15.60;98.80;;;;;;5106881;28;19942;-82
2022/06/23 04:24:42;;;;;;;;;;;15.60;98.60;;;;;;5098108;28;19923;-82
2022/06/23 04:27:34;;;;;;;;;;;15.60;98.60;;;;;;5106990;28;19924;-81
2022/06/23 04:30:03;;;;;;;;;;;15.60;98.90;;;;;;5128246;28;19924;-79
2022/06/23 04:32:33;;;;;;;;;;;15.70;98.90;;;;;;5117476;28;19934;-80
2022/06/23 04:35:11;;;;;;;;;;;15.60;98.70;;;;;;5108862;28;19928;-82
2022/06/23 04:37:48;;;;;;;;;;;14.60;98.50;;;;;;5103077;28;20437;-81
2022/06/23 04:40:23;;;;;;;;;;;15.80;99.00;;;;;;4756122;27;9999935;-82
2022/06/23 04:42:57;;;;;;;;;;;15.80;99.60;;;;;;5085782;28;19923;-81
2022/06/23 04:45:30;;;;;;;;;;;15.30;99.10;;;;;;5119914;28;19950;-80
2022/06/23 04:48:00;;;;;;;;;;;15.90;99.20;;;;;;5117882;28;20427;-81
2022/06/23 04:50:37;;;;;;;;;;;15.90;99.40;;;;;;5096319;28;19935;-81
2022/06/23 04:53:19;;;;;;;;;;;16.00;99.30;;;;;;5089612;28;19924;-81
2022/06/23 04:55:58;;;;;;;;;;;16.00;99.40;;;;;;5116231;28;20379;-83
2022/06/23 04:58:27;;;;;;;;;;;16.00;99.30;;;;;;5098788;28;19934;-80
2022/06/23 05:00:55;;;;;;;;;;;15.00;99.40;;;;;;5096055;28;19939;-82
2022/06/23 05:03:35;;;;;;;;;;;16.10;99.50;;;;;;5110764;28;19924;-83
2022/06/23 05:06:05;;;;;;;;;;;16.10;99.50;;;;;;5093385;28;19924;-81
2022/06/23 05:08:36;;;;;;;;;;;16.10;99.30;;;;;;5089011;28;19924;-81
2022/06/23 05:11:17;;;;;;;;;;;16.10;99.70;;;;;;5126171;27;19923;-80
2022/06/23 05:13:50;;;;;;;;;;;16.20;99.60;;;;;;5115648;28;19927;-82
2022/06/23 05:16:25;;;;;;;;;;;16.20;99.50;;;;;;5098384;28;20077;-81
2022/06/23 05:19:00;;;;;;;;;;;16.20;99.50;;;;;;5097316;28;19924;-83
2022/06/23 05:21:29;;;;;;;;;;;16.30;99.50;;;;;;5099774;28;19928;-80
2022/06/23 05:23:59;;;;;;;;;;;16.30;99.50;;;;;;5071549;28;19928;-81
2022/06/23 05:26:33;;;;;;;;;;;16.40;99.60;;;;;;5078310;28;19928;-82
2022/06/23 05:29:05;;;;;;;;;;;16.40;99.50;;;;;;5115498;28;19924;-82
2022/06/23 05:31:34;;;;;;;;;;;16.60;99.50;;;;;;5094980;28;19939;-80
2022/06/23 05:34:24;;;;;;;;;;;16.50;99.60;;;;;;5077754;28;19997;-81
2022/06/23 05:37:12;;;;;;;;;;;16.60;99.30;;;;;;5079625;28;19924;-81
2022/06/23 05:39:54;;;;;;;;;;;16.60;99.20;;;;;;5087058;28;19928;-81
2022/06/23 05:42:24;;;;;;;;;;;16.60;99.80;;;;;;5112203;28;19928;-81
2022/06/23 05:44:56;;;;;;;;;;;16.60;99.70;;;;;;5063977;28;19923;-81
2022/06/23 05:47:26;;;;;;;;;;;16.70;99.70;;;;;;5093266;28;20013;-81
2022/06/23 05:50:01;;;;;;;;;;;16.70;99.60;;;;;;5091898;28;19930;-81
2022/06/23 05:52:49;;;;;;;;;;;16.80;99.50;;;;;;5115930;28;19943;-83
2022/06/23 05:55:38;;;;;;;;;;;16.80;99.60;;;;;;5113496;28;19931;-80
2022/06/23 05:58:14;;;;;;;;;;;16.50;99.60;;;;;;5104699;28;19931;-80
2022/06/23 06:01:06;;;;;;;;;;;16.90;99.60;;;;;;5095799;28;19924;-84
2022/06/23 06:03:40;;;;;;;;;;;16.90;99.30;;;;;;5111664;28;19931;-82
2022/06/23 06:06:13;;;;;;;;;;;16.90;99.90;;;;;;5106883;28;19936;-83
2022/06/23 06:11:39;;;;;;;;;;;16.90;99.40;;;;;;5107450;28;19931;-82
2022/06/23 06:14:16;;;;;;;;;;;17.00;99.70;;;;;;5094582;28;20303;-82
2022/06/23 06:16:47;;;;;;;;;;;17.00;99.70;;;;;;5088952;28;19931;-82
2022/06/23 06:19:16;;;;;;;;;;;17.00;99.60;;;;;;5108045;28;19928;-85
2022/06/23 06:21:46;;;;;;;;;;;17.00;99.50;;;;;;5094998;28;19928;-82
2022/06/23 06:24:23;;;;;;;;;;;17.00;99.60;;;;;;5114860;28;19928;-81
2022/06/23 06:26:55;;;;;;;;;;;17.00;99.70;;;;;;5088787;28;19928;-82
2022/06/23 06:29:39;;;;;;;;;;;17.10;99.70;;;;;;5093608;28;19923;-81
2022/06/23 06:32:26;;;;;;;;;;;17.10;99.60;;;;;;5098647;28;20350;-81
2022/06/23 06:34:59;;;;;;;;;;;17.20;99.70;;;;;;5110772;28;19936;-83
2022/06/23 06:37:35;;;;;;;;;;;17.20;99.70;;;;;;5104142;28;20322;-81
2022/06/23 06:40:06;;;;;;;;;;;17.30;99.60;;;;;;5115822;27;19924;-81
2022/06/23 06:42:56;;;;;;;;;;;17.30;99.40;;;;;;5116461;28;20176;-81
2022/06/23 06:45:32;;;;;;;;;;;17.40;99.60;;;;;;5114805;28;19929;-81
2022/06/23 06:48:02;;;;;;;;;;;16.80;99.20;;;;;;5116481;28;19924;-83
2022/06/23 06:50:47;;;;;;;;;;;17.50;99.70;;;;;;5092281;28;19928;-81
2022/06/23 06:53:28;;;;;;;;;;;17.10;99.70;;;;;;5073734;28;19924;-80
2022/06/23 06:55:59;;;;;;;;;;;17.50;99.90;;;;;;5092476;28;20120;-81
2022/06/23 06:58:31;;;;;;;;;;;17.20;99.90;;;;;;5061442;28;20347;-81
2022/06/23 07:01:05;;;;;;;;;;;17.50;99.90;;;;;;5124995;27;19931;-81
2022/06/23 07:03:34;;;;;;;;;;;17.50;99.90;;;;;;5066406;28;19935;-81
2022/06/23 07:06:16;;;;;;;;;;;17.50;99.80;;;;;;5071559;28;19929;-81
2022/06/23 07:08:52;;;;;;;;;;;17.50;99.90;;;;;;5051899;28;19925;-83
2022/06/23 07:11:22;;;;;;;;;;;17.50;99.90;;;;;;5067005;28;19925;-82
2022/06/23 07:14:11;;;;;;;;;;;17.50;99.90;;;;;;5063883;28;19948;-80
2022/06/23 07:16:43;;;;;;;;;;;17.70;99.90;;;;;;5071201;28;20450;-81
2022/06/23 07:19:25;;;;;;;;;;;17.50;99.90;;;;;;5070606;28;19928;-80
2022/06/23 07:22:03;;;;;;;;;;;17.10;99.90;;;;;;5068350;28;19929;-81
2022/06/23 07:24:39;;;;;;;;;;;17.50;99.90;;;;;;5053040;28;20314;-79
2022/06/23 07:27:27;;;;;;;;;;;17.50;99.80;;;;;;5069172;28;19929;-80
2022/06/23 07:30:03;;;;;;;;;;;17.50;99.80;;;;;;5066531;28;19932;-81
2022/06/23 07:32:51;;;;;;;;;;;17.50;99.90;;;;;;5057624;28;19924;-79
2022/06/23 07:35:24;;;;;;;;;;;17.50;99.90;;;;;;5077115;28;20311;-80
2022/06/23 07:38:12;;;;;;;;;;;17.50;99.90;;;;;;5079443;28;19925;-80
2022/06/23 07:40:46;;;;;;;;;;;16.80;99.90;;;;;;5080517;28;19924;-82
2022/06/23 07:43:27;;;;;;;;;;;17.70;99.90;;;;;;5062956;28;19939;-81
2022/06/23 07:45:58;;;;;;;;;;;17.60;99.90;;;;;;5078025;28;19940;-81
2022/06/23 07:48:29;;;;;;;;;;;17.70;99.90;;;;;;5077533;28;19924;-82
2022/06/23 07:51:07;;;;;;;;;;;17.70;99.90;;;;;;5065892;28;19925;-82
2022/06/23 07:53:44;;;;;;;;;;;17.70;99.90;;;;;;5058326;28;19932;-82
2022/06/23 07:56:24;;;;;;;;;;;17.60;99.90;;;;;;5069606;28;20315;-83
2022/06/23 07:58:56;;;;;;;;;;;17.70;99.90;;;;;;5073519;28;19924;-83
2022/06/23 08:01:25;;;;;;;;;;;17.60;99.90;;;;;;5042125;28;19932;-83
2022/06/23 08:04:18;;;;;;;;;;;17.70;99.90;;;;;;5086076;28;20283;-83
2022/06/23 08:06:48;;;;;;;;;;;17.60;99.90;;;;;;5096581;28;19932;-82
2022/06/23 08:09:37;;;;;;;;;;;16.60;99.90;;;;;;5058218;28;19925;-81
2022/06/23 08:17:58;;;;;;;;;;;17.90;99.90;;;;;;5095784;28;19924;-82
2022/06/23 08:20:29;;;;;;;;;;;17.40;99.90;;;;;;5095157;28;19942;-82
2022/06/23 08:23:02;;;;;;;;;;;17.40;99.90;;;;;;5072569;28;19928;-83
2022/06/23 08:25:30;;;;;;;;;;;17.40;99.90;;;;;;5098435;28;19928;-84
2022/06/23 08:27:59;;;;;;;;;;;17.50;99.90;;;;;;5038036;28;19924;-82
2022/06/23 08:30:29;;;;;;;;;;;17.30;99.90;;;;;;5066227;28;20298;-82
2022/06/23 08:32:57;;;;;;;;;;;17.40;99.90;;;;;;5091907;28;20187;-83
2022/06/23 08:35:36;;;;;;;;;;;17.40;99.90;;;;;;5098146;28;20424;-82
2022/06/23 08:38:08;;;;;;;;;;;17.50;99.90;;;;;;5101151;28;19924;-82
2022/06/23 08:40:51;;;;;;;;;;;17.60;99.90;;;;;;5103779;28;19925;-82
2022/06/23 08:43:39;;;;;;;;;;;17.70;99.90;;;;;;5119406;28;20388;-83
2022/06/23 08:46:25;;;;;;;;;;;17.70;99.90;;;;;;5084558;28;20401;-83
2022/06/23 08:49:06;;;;;;;;;;;17.80;99.90;;;;;;5079427;28;19939;-82
2022/06/23 08:51:41;;;;;;;;;;;17.90;99.90;;;;;;5095449;28;19909;-84
2022/06/23 08:54:50;;;;;;;;;;;17.90;99.90;;;;;;5103703;28;19935;-82
2022/06/23 08:57:24;;;;;;;;;;;18.10;99.90;;;;;;5095467;28;19935;-83
2022/06/23 09:00:05;;;;;;;;;;;18.20;99.90;;;;;;5092331;28;20298;-82
2022/06/23 09:02:54;;;;;;;;;;;18.30;99.90;;;;;;5102893;28;19928;-82
2022/06/23 09:05:31;;;;;;;;;;;18.40;99.90;;;;;;5104190;28;19928;-82
2022/06/23 09:08:07;;;;;;;;;;;18.60;99.90;;;;;;5080268;28;19939;-81
2022/06/23 09:10:58;;;;;;;;;;;18.80;99.90;;;;;;5095810;28;19924;-82
2022/06/23 09:13:33;;;;;;;;;;;18.90;99.90;;;;;;5102958;28;19947;-82
2022/06/23 09:16:25;;;;;;;;;;;19.10;99.90;;;;;;5084972;28;19931;-80
2022/06/23 09:18:56;;;;;;;;;;;19.30;99.90;;;;;;5066992;28;19916;-81
2022/06/23 09:21:42;;;;;;;;;;;19.50;99.90;;;;;;5086995;28;19924;-80
2022/06/23 09:24:29;;;;;;;;;;;19.60;99.90;;;;;;5073146;28;19931;-79
2022/06/23 09:27:00;;;;;;;;;;;19.80;99.90;;;;;;5056882;28;20407;-80
2022/06/23 09:29:32;;;;;;;;;;;20.00;99.90;;;;;;5090104;28;19928;-78
2022/06/23 09:32:06;;;;;;;;;;;20.10;99.90;;;;;;5088829;28;20250;-78
2022/06/23 09:34:53;;;;;;;;;;;20.20;99.90;;;;;;5089441;28;19932;-79
2022/06/23 09:37:24;;;;;;;;;;;20.40;99.90;;;;;;5097839;28;19924;-83
2022/06/23 09:39:54;;;;;;;;;;;20.60;99.90;;;;;;5071388;28;20319;-81
2022/06/23 09:42:36;;;;;;;;;;;20.60;99.90;;;;;;5097588;28;19935;-81
2022/06/23 09:45:09;;;;;;;;;;;20.70;99.90;;;;;;5065195;28;19935;-79
2022/06/23 09:47:57;;;;;;;;;;;20.80;99.90;;;;;;5098092;28;20006;-79
2022/06/23 09:50:44;;;;;;;;;;;20.80;99.90;;;;;;5099326;28;19928;-80
2022/06/23 09:53:16;;;;;;;;;;;20.80;99.90;;;;;;5081438;28;19925;-79
2022/06/23 09:55:54;;;;;;;;;;;21.00;99.90;;;;;;5076942;28;19928;-80
2022/06/23 09:58:31;;;;;;;;;;;21.10;99.90;;;;;;5078223;28;19932;-78
2022/06/23 10:01:23;;;;;;;;;;;21.30;99.90;;;;;;5075274;28;19967;-78
2022/06/23 10:03:57;;;;;;;;;;;21.40;99.90;;;;;;5070125;28;19924;-78
2022/06/23 10:06:36;;;;;;;;;;;21.60;99.90;;;;;;5095169;28;19924;-79
2022/06/23 10:09:11;;;;;;;;;;;21.80;99.90;;;;;;5076885;28;19924;-80
2022/06/23 10:11:43;;;;;;;;;;;22.20;99.60;;;;;;5102684;28;19932;-79
2022/06/23 10:14:22;;;;;;;;;;;21.80;99.40;;;;;;5050882;28;19925;-78
2022/06/23 10:16:55;;;;;;;;;;;21.90;98.80;;;;;;5055945;28;19931;-78
2022/06/23 10:19:33;;;;;;;;;;;22.20;99.00;;;;;;5072994;28;20299;-79
2022/06/23 10:22:04;;;;;;;;;;;22.30;98.60;;;;;;5055385;28;19931;-80
2022/06/23 10:24:55;;;;;;;;;;;22.50;98.30;;;;;;5074581;28;20338;-78
2022/06/23 10:27:43;;;;;;;;;;;22.60;98.40;;;;;;5091722;28;19943;-79
2022/06/23 10:30:41;;;;;;;;;;;22.70;97.50;;;;;;5071582;28;19932;-80
2022/06/23 10:33:25;;;;;;;;;;;22.90;97.60;;;;;;5082448;28;19928;-79
2022/06/23 10:36:11;;;;;;;;;;;23.00;97.20;;;;;;5083366;28;19931;-79
2022/06/23 10:38:48;;;;;;;;;;;23.00;96.60;;;;;;5103280;28;19925;-79
2022/06/23 10:41:31;;;;;;;;;;;23.10;96.20;;;;;;5102449;28;20097;-79
2022/06/23 10:44:00;;;;;;;;;;;23.00;96.00;;;;;;5092039;28;19928;-77
2022/06/23 10:46:52;;;;;;;;;;;23.00;96.50;;;;;;5097310;28;19928;-79
2022/06/23 10:49:29;;;;;;;;;;;23.20;96.00;;;;;;5103375;28;19961;-82
2022/06/23 10:52:10;;;;;;;;;;;22.90;95.90;;;;;;5075130;28;19929;-79
2022/06/23 10:54:37;;;;;;;;;;;22.70;96.30;;;;;;5077054;28;19932;-86
2022/06/23 10:57:14;;;;;;;;;;;22.70;96.40;;;;;;5088658;28;19939;-83
2022/06/23 10:59:44;;;;;;;;;;;22.60;96.30;;;;;;5097539;28;19925;-81
2022/06/23 11:02:22;;;;;;;;;;;22.40;96.50;;;;;;5084237;28;19925;-77
2022/06/23 11:04:50;;;;;;;;;;;22.50;96.70;;;;;;5077232;28;19931;-79
2022/06/23 11:07:25;;;;;;;;;;;22.40;96.30;;;;;;5082946;28;19928;-77
2022/06/23 11:09:56;;;;;;;;;;;22.50;96.80;;;;;;5076021;28;19932;-76
2022/06/23 11:12:39;;;;;;;;;;;22.50;96.40;;;;;;5083388;28;19935;-79
2022/06/23 11:15:25;;;;;;;;;;;22.60;96.60;;;;;;5085135;28;19935;-79
2022/06/23 11:18:06;;;;;;;;;;;22.70;96.30;;;;;;5086134;28;19929;-79
2022/06/23 11:20:43;;;;;;;;;;;22.80;96.00;;;;;;5094913;28;19935;-79
2022/06/23 11:23:25;;;;;;;;;;;23.00;95.30;;;;;;5070232;28;19924;-78
2022/06/23 11:26:00;;;;;;;;;;;22.90;95.60;;;;;;5073107;28;19935;-81
2022/06/23 11:28:47;;;;;;;;;;;23.20;95.40;;;;;;5079677;28;19932;-80
2022/06/23 11:31:26;;;;;;;;;;;23.30;95.30;;;;;;5094061;28;19928;-84
2022/06/23 11:34:13;;;;;;;;;;;23.30;95.20;;;;;;5105332;28;19955;-79
2022/06/23 11:36:47;;;;;;;;;;;23.30;95.30;;;;;;5088046;28;19927;-81
2022/06/23 11:39:32;;;;;;;;;;;23.50;95.20;;;;;;5092891;28;19932;-81
2022/06/23 11:42:31;;;;;;;;;;;23.60;94.40;;;;;;5088952;28;19935;-79
2022/06/23 11:45:19;;;;;;;;;;;23.80;94.60;;;;;;5074723;28;19947;-80
2022/06/23 11:47:52;;;;;;;;;;;24.00;94.30;;;;;;5096139;28;20034;-80
2022/06/23 11:50:28;;;;;;;;;;;24.10;94.30;;;;;;5097378;28;19924;-81
2022/06/23 11:53:14;;;;;;;;;;;24.30;94.10;;;;;;5094017;28;20127;-81
2022/06/23 11:55:48;;;;;;;;;;;24.40;93.70;;;;;;5093132;28;19928;-81
2022/06/23 11:58:32;;;;;;;;;;;24.50;93.80;;;;;;5078968;28;19933;-82
2022/06/23 12:01:15;;;;;;;;;;;24.60;93.80;;;;;;5057686;28;19935;-82
2022/06/23 12:04:02;;;;;;;;;;;24.70;93.70;;;;;;5072830;28;19928;-80
2022/06/23 12:06:35;;;;;;;;;;;24.60;93.30;;;;;;5121527;28;19928;-79
2022/06/23 12:09:07;;;;;;;;;;;24.80;93.10;;;;;;5118781;28;19930;-79
2022/06/23 12:11:38;;;;;;;;;;;24.90;93.30;;;;;;5121330;28;19931;-81
2022/06/23 12:14:07;;;;;;;;;;;25.00;93.00;;;;;;5101563;28;19934;-81
2022/06/23 12:16:41;;;;;;;;;;;25.00;92.90;;;;;;5099578;28;19924;-80
2022/06/23 12:19:15;;;;;;;;;;;25.10;92.40;;;;;;5122474;28;19931;-80
2022/06/23 12:22:00;;;;;;;;;;;25.20;92.60;;;;;;5104049;28;19935;-82
2022/06/23 12:25:00;;;;;;;;;;;25.20;92.60;;;;;;5116487;28;19938;-79
2022/06/23 12:27:36;;;;;;;;;;;25.50;92.50;;;;;;5045583;28;19936;-82
2022/06/23 12:30:15;;;;;;;;;;;25.60;92.50;;;;;;5102444;28;20290;-83
2022/06/23 12:33:00;;;;;;;;;;;26.00;92.30;;;;;;5097661;28;19935;-81
2022/06/23 12:35:41;;;;;;;;;;;25.90;92.00;;;;;;5101540;28;20629;-83
2022/06/23 12:38:15;;;;;;;;;;;25.90;91.90;;;;;;5104242;28;19927;-82
2022/06/23 12:40:50;;;;;;;;;;;25.80;91.90;;;;;;5116722;28;19928;-82
2022/06/23 12:43:20;;;;;;;;;;;25.70;91.70;;;;;;5117336;28;19928;-80
2022/06/23 12:46:03;;;;;;;;;;;25.70;91.30;;;;;;5106196;28;19928;-82
2022/06/23 12:48:41;;;;;;;;;;;25.70;91.50;;;;;;5100194;28;19928;-82
2022/06/23 12:51:15;;;;;;;;;;;25.70;91.60;;;;;;5100640;28;19924;-82
2022/06/23 12:54:02;;;;;;;;;;;25.70;91.60;;;;;;5090293;28;19934;-81
2022/06/23 12:56:53;;;;;;;;;;;25.80;91.60;;;;;;5081898;28;20420;-85
2022/06/23 12:59:49;;;;;;;;;;;25.90;91.30;;;;;;5118664;28;19923;-82
2022/06/23 13:02:32;;;;;;;;;;;25.90;91.30;;;;;;5125522;28;19928;-83
2022/06/23 13:05:22;;;;;;;;;;;26.00;91.00;;;;;;5117889;28;19931;-83
2022/06/23 13:08:07;;;;;;;;;;;26.10;90.60;;;;;;5103108;28;19923;-85
2022/06/23 13:10:53;;;;;;;;;;;26.20;90.50;;;;;;5104668;28;19931;-82
2022/06/23 13:13:35;;;;;;;;;;;26.30;90.10;;;;;;5105023;28;19995;-82
2022/06/23 13:16:06;;;;;;;;;;;26.30;90.60;;;;;;5093491;28;19935;-82
2022/06/23 13:19:05;;;;;;;;;;;26.60;90.30;;;;;;5109915;28;19935;-84
2022/06/23 13:21:34;;;;;;;;;;;25.50;89.50;;;;;;5127940;27;19939;-84
2022/06/23 13:24:07;;;;;;;;;;;26.70;88.10;;;;;;5107946;28;19924;-83
2022/06/23 13:26:47;;;;;;;;;;;26.70;89.90;;;;;;5092972;28;19931;-90
2022/06/23 13:29:19;;;;;;;;;;;27.60;89.90;;;;;;5084429;28;19924;-87
2022/06/23 13:31:49;;;;;;;;;;;26.60;89.10;;;;;;5120218;28;19928;-89
2022/06/23 13:34:35;;;;;;;;;;;26.60;89.30;;;;;;5106731;28;19927;-83
2022/06/23 13:37:10;;;;;;;;;;;26.60;88.30;;;;;;5097139;28;19928;-87
2022/06/23 13:39:55;;;;;;;;;;;26.80;87.30;;;;;;5088310;28;19928;-86
2022/06/23 13:42:33;;;;;;;;;;;26.50;88.30;;;;;;5118877;28;19924;-87
2022/06/23 13:45:05;;;;;;;;;;;26.40;89.20;;;;;;5118262;28;19927;-85
2022/06/23 13:47:39;;;;;;;;;;;26.40;88.60;;;;;;5098528;28;19924;-88
2022/06/23 13:50:12;;;;;;;;;;;26.40;89.00;;;;;;5081390;28;19923;-86
2022/06/23 13:52:45;;;;;;;;;;;27.10;89.10;;;;;;5103942;28;19927;-86
2022/06/23 13:55:15;;;;;;;;;;;27.00;88.30;;;;;;5109186;28;19928;-87
2022/06/23 13:57:54;;;;;;;;;;;27.40;86.10;;;;;;5125848;28;19922;-88
2022/06/23 14:00:23;;;;;;;;;;;27.70;86.80;;;;;;5086304;28;19935;-87
2022/06/23 14:02:59;;;;;;;;;;;27.80;87.00;;;;;;5100667;28;19931;-85
2022/06/23 14:05:38;;;;;;;;;;;27.80;85.00;;;;;;5103553;28;20306;-89
2022/06/23 14:08:14;;;;;;;;;;;27.70;85.50;;;;;;5101065;28;19924;-85
2022/06/23 14:11:03;;;;;;;;;;;27.70;86.20;;;;;;5115639;28;19927;-85
2022/06/23 14:13:55;;;;;;;;;;;27.80;86.30;;;;;;5117847;28;19924;-84
2022/06/23 14:16:35;;;;;;;;;;;28.10;85.10;;;;;;5098027;28;19932;-83
2022/06/23 14:19:06;;;;;;;;;;;28.40;84.70;;;;;;5136391;28;19924;-84
2022/06/23 14:22:04;;;;;;;;;;;28.60;82.80;;;;;;5121410;28;19927;-84
2022/06/23 14:24:36;;;;;;;;;;;28.70;83.80;;;;;;5129764;28;19931;-84
2022/06/23 14:27:26;;;;;;;;;;;28.60;82.30;;;;;;5108900;28;19931;-85
2022/06/23 14:30:14;;;;;;;;;;;28.60;81.30;;;;;;5119580;28;20001;-85
2022/06/23 14:32:45;;;;;;;;;;;28.70;81.40;;;;;;5103531;28;19924;-83
2022/06/23 14:35:19;;;;;;;;;;;29.10;81.40;;;;;;5123416;28;19912;-83
2022/06/23 14:38:05;;;;;;;;;;;29.60;79.80;;;;;;5121322;28;19931;-84
2022/06/23 14:40:44;;;;;;;;;;;30.00;79.80;;;;;;5111458;28;20195;-83
2022/06/23 14:43:29;;;;;;;;;;;30.50;78.40;;;;;;5106275;28;19935;-84
2022/06/23 14:46:09;;;;;;;;;;;30.70;76.70;;;;;;5120682;28;19927;-85
2022/06/23 14:48:54;;;;;;;;;;;30.80;76.60;;;;;;5103414;28;20083;-83
2022/06/23 14:51:24;;;;;;;;;;;30.90;76.30;;;;;;5125117;28;19924;-83
2022/06/23 14:53:55;;;;;;;;;;;31.00;75.60;;;;;;5110270;28;19934;-83
2022/06/23 14:56:54;;;;;;;;;;;31.20;75.00;;;;;;5107966;28;19923;-83
2022/06/23 14:59:52;;;;;;;;;;;31.30;73.60;;;;;;5105528;28;19928;-83
2022/06/23 15:02:27;;;;;;;;;;;31.40;73.70;;;;;;5105439;28;19919;-83
2022/06/23 15:05:08;;;;;;;;;;;31.40;73.20;;;;;;5089758;28;20265;-83
2022/06/23 15:07:53;;;;;;;;;;;30.90;73.00;;;;;;5083885;28;20396;-83
2022/06/23 15:10:27;;;;;;;;;;;30.60;73.40;;;;;;5076806;28;19920;-83
2022/06/23 15:12:58;;;;;;;;;;;30.10;73.80;;;;;;5079417;28;19932;-85
2022/06/23 15:15:36;;;;;;;;;;;29.80;74.10;;;;;;5076821;28;19928;-84
2022/06/23 15:18:25;;;;;;;;;;;29.50;74.20;;;;;;5076278;28;19936;-83
2022/06/23 15:20:59;;;;;;;;;;;29.30;74.30;;;;;;5059652;28;19943;-86
2022/06/23 15:23:32;;;;;;;;;;;28.90;74.70;;;;;;5045238;28;19924;-85
2022/06/23 15:26:14;;;;;;;;;;;28.70;74.60;;;;;;5062785;28;19939;-85